createdAt,value
2023-01-29T00:01:52.204Z,7.40
2023-01-29T00:04:19.311Z,10.15
2023-01-29T00:06:48.116Z,9.43
2023-01-29T00:09:16.344Z,6.60
2023-01-29T00:11:43.478Z,7.10
2023-01-29T00:14:14.671Z,6.25
2023-01-29T00:16:41.651Z,7.07
2023-01-29T00:19:08.501Z,9.15
2023-01-29T00:21:35.755Z,9.32
2023-01-29T00:24:05.706Z,7.00
2023-01-29T00:26:32.836Z,8.77
2023-01-29T00:28:59.951Z,9.07
2023-01-29T00:31:31.197Z,8.70
2023-01-29T00:33:59.545Z,7.70
2023-01-29T00:36:27.347Z,8.38
2023-01-29T00:38:58.942Z,8.75
2023-01-29T00:41:28.902Z,11.02
2023-01-29T00:43:55.910Z,7.28
2023-01-29T00:46:22.713Z,11.20
2023-01-29T00:48:51.244Z,8.13
2023-01-29T00:53:59.320Z,13.00
2023-01-29T00:59:42.697Z,8.73
2023-01-29T01:02:11.931Z,9.27
2023-01-29T01:04:38.701Z,10.40
2023-01-29T01:07:05.992Z,10.30
2023-01-29T01:09:35.188Z,14.13
2023-01-29T01:12:01.883Z,10.50
2023-01-29T01:14:28.698Z,10.63
2023-01-29T01:16:56.761Z,9.38
2023-01-29T01:19:23.634Z,10.05
2023-01-29T01:21:50.361Z,9.02
2023-01-29T01:24:17.079Z,10.20
2023-01-29T01:26:43.798Z,9.48
2023-01-29T01:29:10.598Z,11.70
2023-01-29T01:31:37.312Z,9.85
2023-01-29T01:34:05.742Z,9.55
2023-01-29T01:36:32.872Z,10.68
2023-01-29T01:39:00.028Z,7.95
2023-01-29T01:41:26.888Z,10.20
2023-01-29T01:43:55.624Z,8.98
2023-01-29T01:46:24.116Z,7.78
2023-01-29T01:48:56.587Z,9.00
2023-01-29T01:51:27.704Z,9.52
2023-01-29T01:54:00.780Z,9.93
2023-01-29T01:56:33.329Z,8.73
2023-01-29T01:59:00.336Z,9.80
2023-01-29T02:01:28.489Z,8.00
2023-01-29T02:04:00.756Z,9.52
2023-01-29T02:06:30.259Z,8.60
2023-01-29T02:09:02.242Z,9.05
2023-01-29T02:11:29.135Z,8.77
2023-01-29T02:13:56.876Z,8.65
2023-01-29T02:16:25.910Z,9.15
2023-01-29T02:18:53.198Z,8.85
2023-01-29T02:21:46.445Z,10.38
2023-01-29T02:24:50.180Z,10.25
2023-01-29T02:27:21.980Z,12.68
2023-01-29T02:30:01.864Z,9.13
2023-01-29T02:32:35.874Z,10.35
2023-01-29T02:35:16.813Z,10.15
2023-01-29T02:37:50.611Z,11.80
2023-01-29T02:40:29.113Z,8.43
2023-01-29T02:43:04.278Z,10.30
2023-01-29T02:45:40.882Z,12.85
2023-01-29T02:48:14.783Z,10.10
2023-01-29T02:50:44.431Z,9.82
2023-01-29T02:55:47.130Z,11.60
2023-01-29T02:58:21.747Z,10.05
2023-01-29T03:00:54.199Z,10.00
2023-01-29T03:03:26.421Z,11.93
2023-01-29T03:06:01.646Z,11.73
2023-01-29T03:08:32.379Z,9.35
2023-01-29T03:11:04.343Z,9.05
2023-01-29T03:13:37.003Z,10.20
2023-01-29T03:16:12.446Z,8.82
2023-01-29T03:18:46.011Z,10.82
2023-01-29T03:21:18.455Z,9.90
2023-01-29T03:23:45.448Z,9.07
2023-01-29T03:26:14.982Z,9.90
2023-01-29T03:28:44.276Z,9.18
2023-01-29T03:31:14.355Z,13.02
2023-01-29T03:33:59.641Z,9.52
2023-01-29T03:36:32.977Z,10.60
2023-01-29T03:39:00.464Z,13.75
2023-01-29T03:41:33.289Z,9.55
2023-01-29T03:44:10.174Z,9.90
2023-01-29T03:46:46.610Z,10.32
2023-01-29T03:49:21.870Z,9.68
2023-01-29T03:51:56.463Z,11.93
2023-01-29T03:54:29.076Z,10.98
2023-01-29T03:57:00.775Z,11.13
2023-01-29T03:59:39.183Z,10.95
2023-01-29T04:02:24.514Z,12.05
2023-01-29T04:04:53.862Z,11.40
2023-01-29T04:07:21.987Z,10.30
2023-01-29T04:09:54.434Z,10.88
2023-01-29T04:12:25.560Z,12.23
2023-01-29T04:14:54.530Z,13.63
2023-01-29T04:17:27.688Z,9.18
2023-01-29T04:20:04.580Z,11.27
2023-01-29T04:22:35.572Z,11.20
2023-01-29T04:25:05.537Z,11.75
2023-01-29T04:27:43.379Z,15.40
2023-01-29T04:30:22.889Z,12.27
2023-01-29T04:33:02.977Z,12.77
2023-01-29T04:35:32.620Z,15.85
2023-01-29T04:38:11.476Z,11.70
2023-01-29T04:40:49.625Z,13.45
2023-01-29T04:43:24.334Z,16.33
2023-01-29T04:46:06.056Z,14.48
2023-01-29T04:48:44.520Z,14.90
2023-01-29T04:51:17.924Z,11.82
2023-01-29T04:53:50.275Z,14.05
2023-01-29T04:56:23.952Z,13.80
2023-01-29T04:58:55.722Z,13.63
2023-01-29T05:01:27.398Z,16.02
2023-01-29T05:03:56.620Z,11.40
2023-01-29T05:06:24.724Z,13.85
2023-01-29T05:08:52.400Z,14.20
2023-01-29T05:11:20.380Z,16.33
2023-01-29T05:13:48.784Z,11.93
2023-01-29T05:16:19.247Z,16.48
2023-01-29T05:18:46.995Z,19.50
2023-01-29T05:21:15.171Z,16.98
2023-01-29T05:23:41.853Z,16.60
2023-01-29T05:26:08.603Z,15.38
2023-01-29T05:28:35.284Z,16.98
2023-01-29T05:31:02.165Z,18.10
2023-01-29T05:33:31.030Z,16.80
2023-01-29T05:35:59.819Z,16.35
2023-01-29T05:38:28.252Z,18.25
2023-01-29T05:40:54.894Z,19.38
2023-01-29T05:43:23.601Z,19.00
2023-01-29T05:45:54.641Z,17.95
2023-01-29T05:48:21.617Z,21.02
2023-01-29T05:50:48.672Z,26.55
2023-01-29T05:53:15.763Z,19.13
2023-01-29T05:55:46.032Z,20.58
2023-01-29T05:58:13.140Z,21.15
2023-01-29T06:00:40.228Z,20.35
2023-01-29T06:03:07.159Z,22.15
2023-01-29T06:05:33.944Z,21.05
2023-01-29T06:08:00.736Z,17.55
2023-01-29T06:10:27.892Z,26.60
2023-01-29T06:12:55.952Z,26.08
2023-01-29T06:15:22.641Z,27.35
2023-01-29T06:17:49.391Z,25.33
2023-01-29T06:20:16.744Z,26.58
2023-01-29T06:22:43.637Z,21.42
2023-01-29T06:25:10.416Z,23.80
2023-01-29T06:27:37.174Z,22.38
2023-01-29T06:30:06.663Z,26.42
2023-01-29T06:32:34.567Z,27.27
2023-01-29T06:35:01.407Z,22.90
2023-01-29T06:37:28.080Z,32.05
2023-01-29T06:39:54.756Z,28.60
2023-01-29T06:42:21.475Z,23.55
2023-01-29T06:44:48.139Z,26.95
2023-01-29T06:47:16.374Z,31.38
2023-01-29T06:49:43.127Z,25.20
2023-01-29T06:52:09.862Z,28.25
2023-01-29T06:54:36.554Z,24.70
2023-01-29T06:57:03.373Z,18.80
2023-01-29T06:59:30.111Z,25.00
2023-01-29T07:01:56.891Z,31.08
2023-01-29T07:04:25.260Z,31.23
2023-01-29T07:06:51.959Z,30.88
2023-01-29T07:09:18.832Z,25.52
2023-01-29T07:11:45.449Z,34.08
2023-01-29T07:14:12.118Z,33.25
2023-01-29T07:16:39.103Z,31.23
2023-01-29T07:19:05.862Z,31.48
2023-01-29T07:21:33.921Z,28.48
2023-01-29T07:24:00.720Z,40.25
2023-01-29T07:26:27.503Z,34.95
2023-01-29T07:28:54.357Z,36.95
2023-01-29T07:31:21.328Z,29.45
2023-01-29T07:33:48.251Z,34.45
2023-01-29T07:36:15.396Z,35.40
2023-01-29T07:38:43.515Z,31.08
2023-01-29T07:41:11.672Z,27.15
2023-01-29T07:43:38.541Z,34.13
2023-01-29T07:46:05.686Z,27.95
2023-01-29T07:48:32.401Z,34.60
2023-01-29T07:50:59.243Z,29.83
2023-01-29T07:53:26.901Z,28.27
2023-01-29T07:55:55.247Z,34.47
2023-01-29T07:58:22.130Z,36.80
2023-01-29T08:00:49.031Z,31.52
2023-01-29T08:03:18.532Z,33.20
2023-01-29T08:11:29.173Z,33.83
2023-01-29T08:13:56.219Z,29.83
2023-01-29T08:16:23.220Z,26.10
2023-01-29T08:18:50.091Z,27.95
2023-01-29T08:21:16.861Z,27.33
2023-01-29T08:23:43.707Z,25.13
2023-01-29T08:26:10.558Z,33.83
2023-01-29T08:28:38.748Z,30.17
2023-01-29T08:31:12.925Z,29.30
2023-01-29T08:33:40.140Z,25.75
2023-01-29T08:36:08.291Z,29.65
2023-01-29T08:38:35.556Z,30.05
2023-01-29T08:41:02.428Z,25.48
2023-01-29T08:43:29.422Z,28.15
2023-01-29T08:45:57.998Z,26.60
2023-01-29T08:48:24.793Z,32.10
2023-01-29T08:50:51.648Z,27.27
2023-01-29T08:53:18.785Z,28.38
2023-01-29T08:55:46.417Z,32.05
2023-01-29T08:58:13.174Z,29.63
2023-01-29T09:00:39.947Z,27.75
2023-01-29T09:03:08.284Z,22.38
2023-01-29T09:05:35.575Z,25.90
2023-01-29T09:08:02.398Z,32.03
2023-01-29T09:10:29.185Z,23.40
2023-01-29T09:12:56.165Z,25.88
2023-01-29T09:15:23.562Z,22.15
2023-01-29T09:17:50.381Z,32.22
2023-01-29T09:20:19.229Z,28.25
2023-01-29T09:22:46.551Z,27.92
2023-01-29T09:25:13.613Z,32.03
2023-01-29T09:27:40.502Z,28.50
2023-01-29T09:30:08.232Z,32.88
2023-01-29T09:32:52.693Z,26.15
2023-01-29T09:35:23.848Z,24.80
2023-01-29T09:37:50.963Z,31.15
2023-01-29T09:40:24.624Z,26.55
2023-01-29T09:42:57.470Z,26.10
2023-01-29T09:45:27.275Z,33.25
2023-01-29T09:47:59.086Z,31.73
2023-01-29T09:50:32.854Z,34.38
2023-01-29T09:53:05.084Z,30.75
2023-01-29T09:55:37.159Z,28.58
2023-01-29T09:58:11.960Z,31.35
2023-01-29T10:00:44.673Z,24.08
2023-01-29T10:03:29.882Z,20.08
2023-01-29T10:06:15.138Z,21.35
2023-01-29T10:09:06.269Z,17.30
2023-01-29T10:11:41.932Z,14.50
2023-01-29T10:16:54.820Z,12.10
2023-01-29T10:22:29.524Z,13.93
2023-01-29T10:25:00.627Z,15.60
2023-01-29T10:27:32.449Z,12.90
2023-01-29T10:30:02.302Z,13.60
2023-01-29T10:32:30.999Z,17.52
2023-01-29T10:35:02.565Z,12.65
2023-01-29T10:37:39.509Z,13.02
2023-01-29T10:40:20.089Z,10.80
2023-01-29T10:42:52.961Z,9.32
2023-01-29T10:45:29.244Z,11.05
2023-01-29T10:48:22.267Z,11.63
2023-01-29T10:50:55.073Z,15.00
2023-01-29T10:53:33.570Z,8.90
2023-01-29T10:56:22.424Z,11.95
2023-01-29T10:58:52.252Z,8.55
2023-01-29T11:01:19.118Z,10.30
2023-01-29T11:03:45.973Z,10.50
2023-01-29T11:06:19.609Z,9.20
2023-01-29T11:08:54.051Z,8.27
2023-01-29T11:11:24.694Z,8.02
2023-01-29T11:13:56.775Z,13.75
2023-01-29T11:16:23.724Z,10.32
2023-01-29T11:18:53.954Z,10.27
2023-01-29T11:21:20.986Z,9.27
2023-01-29T11:23:49.236Z,9.65
2023-01-29T11:26:19.397Z,12.10
2023-01-29T11:28:47.729Z,13.48
2023-01-29T11:31:26.174Z,10.65
2023-01-29T11:34:01.384Z,9.75
2023-01-29T11:36:32.751Z,9.30
2023-01-29T11:39:22.838Z,9.43
2023-01-29T11:41:53.091Z,11.77
2023-01-29T11:44:22.476Z,14.18
2023-01-29T11:46:50.295Z,16.42
2023-01-29T11:49:31.428Z,12.07
2023-01-29T11:52:01.131Z,9.00
2023-01-29T11:56:58.792Z,12.20
2023-01-29T11:59:35.542Z,13.73
2023-01-29T12:02:13.298Z,11.65
2023-01-29T12:04:40.375Z,8.60
2023-01-29T12:07:13.103Z,15.93
2023-01-29T12:09:41.312Z,12.57
2023-01-29T12:12:18.150Z,11.77
2023-01-29T12:14:45.028Z,11.75
2023-01-29T12:17:17.179Z,17.50
2023-01-29T12:19:48.875Z,13.43
2023-01-29T12:22:21.160Z,19.50
2023-01-29T12:24:57.409Z,11.45
2023-01-29T12:27:31.420Z,14.60
2023-01-29T12:30:04.626Z,13.93
2023-01-29T12:32:40.034Z,11.40
2023-01-29T12:35:14.972Z,16.40
2023-01-29T12:37:57.032Z,17.67
2023-01-29T12:40:29.822Z,13.27
2023-01-29T12:43:01.883Z,8.52
2023-01-29T12:45:30.760Z,13.73
2023-01-29T12:48:09.756Z,10.57
2023-01-29T12:50:37.828Z,12.05
2023-01-29T12:53:12.480Z,11.00
2023-01-29T12:56:01.305Z,9.02
2023-01-29T13:01:21.396Z,8.07
2023-01-29T13:09:50.200Z,7.88
2023-01-29T13:12:22.990Z,10.10
2023-01-29T13:14:54.167Z,10.07
2023-01-29T13:17:28.798Z,9.00
2023-01-29T13:20:00.286Z,10.00
2023-01-29T13:22:29.734Z,7.18
2023-01-29T13:27:43.779Z,13.60
2023-01-29T13:32:53.950Z,12.00
2023-01-29T13:35:23.653Z,14.00
2023-01-29T13:37:53.576Z,16.00
2023-01-29T13:40:24.689Z,14.73
2023-01-29T13:42:59.928Z,17.50
2023-01-29T13:45:35.758Z,19.77
2023-01-29T13:48:11.793Z,16.00
2023-01-29T13:50:43.051Z,20.45
2023-01-29T13:53:22.501Z,15.23
2023-01-29T13:55:51.265Z,12.55
2023-01-29T13:58:56.836Z,14.00
2023-01-29T14:02:01.932Z,15.95
2023-01-29T14:06:58.077Z,12.77
2023-01-29T14:10:05.073Z,14.77
2023-01-29T14:12:41.571Z,13.48
2023-01-29T14:15:36.306Z,17.95
2023-01-29T14:18:18.139Z,21.42
2023-01-29T14:21:04.406Z,23.60
2023-01-29T14:23:52.396Z,21.08
2023-01-29T14:26:27.952Z,13.57
2023-01-29T14:29:03.196Z,19.20
2023-01-29T14:31:37.393Z,12.68
2023-01-29T14:34:07.744Z,16.30
2023-01-29T14:36:44.830Z,15.05
2023-01-29T14:39:28.163Z,10.93
2023-01-29T14:41:56.009Z,15.40
2023-01-29T14:44:51.304Z,22.00
2023-01-29T14:47:27.670Z,14.85
2023-01-29T14:49:59.691Z,18.80
2023-01-29T14:52:34.219Z,15.38
2023-01-29T14:55:07.864Z,12.82
2023-01-29T14:57:37.134Z,19.35
2023-01-29T15:00:06.998Z,14.00
2023-01-29T15:05:58.294Z,32.97
2023-01-29T15:08:29.829Z,17.95
2023-01-29T15:10:59.415Z,12.13
2023-01-29T15:13:32.825Z,17.58
2023-01-29T15:16:06.137Z,12.38
2023-01-29T15:18:38.358Z,15.70
2023-01-29T15:21:11.593Z,8.35
2023-01-29T15:23:38.923Z,12.27
2023-01-29T15:26:08.306Z,12.65
2023-01-29T15:28:35.979Z,14.30
2023-01-29T15:31:04.753Z,14.05
2023-01-29T15:33:33.556Z,16.67
2023-01-29T15:38:53.818Z,14.63
2023-01-29T15:46:23.601Z,15.02
2023-01-29T15:48:54.206Z,15.18
2023-01-29T15:51:27.613Z,14.20
2023-01-29T15:54:00.623Z,15.38
2023-01-29T15:56:35.199Z,12.60
2023-01-29T15:59:09.412Z,12.63
2023-01-29T16:01:36.792Z,8.65
2023-01-29T16:04:04.628Z,9.90
2023-01-29T16:06:38.855Z,13.48
2023-01-29T16:09:07.271Z,18.33
2023-01-29T16:11:35.007Z,14.27
2023-01-29T16:14:03.494Z,9.10
2023-01-29T16:16:30.482Z,7.22
2023-01-29T16:19:00.836Z,8.00
2023-01-29T16:21:31.989Z,13.40
2023-01-29T16:24:02.877Z,10.70
2023-01-29T16:26:33.094Z,8.20
2023-01-29T16:29:05.191Z,7.75
2023-01-29T16:31:32.811Z,6.90
2023-01-29T16:34:06.118Z,5.68
2023-01-29T16:36:33.516Z,17.85
2023-01-29T16:39:06.627Z,11.95
2023-01-29T16:41:36.228Z,14.95
2023-01-29T16:44:04.596Z,9.52
2023-01-29T16:46:36.315Z,9.38
2023-01-29T16:49:20.052Z,12.80
2023-01-29T16:51:46.836Z,15.05
2023-01-29T16:54:15.400Z,18.60
2023-01-29T16:56:44.909Z,16.85
2023-01-29T16:59:18.653Z,8.50
2023-01-29T17:01:45.449Z,9.48
2023-01-29T17:04:15.841Z,15.25
2023-01-29T17:06:46.114Z,16.30
2023-01-29T17:09:22.189Z,8.85
2023-01-29T17:11:55.332Z,11.82
2023-01-29T17:14:24.528Z,12.00
2023-01-29T17:16:54.283Z,10.02
2023-01-29T17:21:51.669Z,13.40
2023-01-29T17:24:21.083Z,14.35
2023-01-29T17:26:48.272Z,13.73
2023-01-29T17:29:19.080Z,7.90
2023-01-29T17:31:46.524Z,12.52
2023-01-29T17:34:15.055Z,32.03
2023-01-29T17:36:43.521Z,12.10
2023-01-29T17:39:17.219Z,13.82
2023-01-29T17:41:47.509Z,16.70
2023-01-29T17:44:14.832Z,15.02
2023-01-29T17:46:41.959Z,16.33
2023-01-29T17:49:19.103Z,15.77
2023-01-29T17:51:46.239Z,16.67
2023-01-29T17:54:13.063Z,11.50
2023-01-29T17:56:41.121Z,13.48
2023-01-29T17:59:13.858Z,12.25
2023-01-29T18:01:40.677Z,10.48
2023-01-29T18:04:07.603Z,17.92
2023-01-29T18:06:34.815Z,23.80
2023-01-29T18:09:01.885Z,14.40
2023-01-29T18:11:28.731Z,13.07
2023-01-29T18:13:55.697Z,11.65
2023-01-29T18:16:24.741Z,15.90
2023-01-29T18:18:52.462Z,12.05
2023-01-29T18:21:19.511Z,17.98
2023-01-29T18:23:46.253Z,22.67
2023-01-29T18:26:15.358Z,23.83
2023-01-29T18:28:42.299Z,10.55
2023-01-29T18:31:11.497Z,16.25
2023-01-29T18:33:41.522Z,17.98
2023-01-29T18:36:08.982Z,13.43
2023-01-29T18:38:35.825Z,9.73
2023-01-29T18:41:03.978Z,14.15
2023-01-29T18:43:30.847Z,13.00
2023-01-29T18:45:58.456Z,14.02
2023-01-29T18:48:25.720Z,13.95
2023-01-29T18:50:53.948Z,12.35
2023-01-29T18:53:20.841Z,14.55
2023-01-29T18:55:54.984Z,18.05
2023-01-29T18:58:26.349Z,15.02
2023-01-29T19:01:00.198Z,10.60
2023-01-29T19:03:26.983Z,17.80
2023-01-29T19:05:59.989Z,8.82
2023-01-29T19:08:26.706Z,14.07
2023-01-29T19:10:53.358Z,16.80
2023-01-29T19:13:20.022Z,9.88
2023-01-29T19:15:46.733Z,10.38
2023-01-29T19:18:14.690Z,14.20
2023-01-29T19:20:41.685Z,11.15
2023-01-29T19:23:09.674Z,11.38
2023-01-29T19:25:37.748Z,17.85
2023-01-29T19:28:05.073Z,49.20
2023-01-29T19:30:32.262Z,12.02
2023-01-29T19:32:59.381Z,11.95
2023-01-29T19:35:26.146Z,9.52
2023-01-29T19:37:53.118Z,14.05
2023-01-29T19:40:21.484Z,19.45
2023-01-29T19:42:48.941Z,14.20
2023-01-29T19:45:16.086Z,15.65
2023-01-29T19:47:43.327Z,10.23
2023-01-29T19:50:11.644Z,16.67
2023-01-29T19:52:50.760Z,14.10
2023-01-29T19:55:20.616Z,18.83
2023-01-29T19:57:51.713Z,14.43
2023-01-29T20:00:19.430Z,16.70
2023-01-29T20:02:46.171Z,22.83
2023-01-29T20:05:13.747Z,19.08
2023-01-29T20:07:40.553Z,20.25
2023-01-29T20:10:08.658Z,14.27
2023-01-29T20:12:35.485Z,21.63
2023-01-29T20:15:04.251Z,17.25
2023-01-29T20:17:30.903Z,15.73
2023-01-29T20:19:57.607Z,11.52
2023-01-29T20:22:26.447Z,17.77
2023-01-29T20:24:54.219Z,12.23
2023-01-29T20:27:20.931Z,14.57
2023-01-29T20:29:47.643Z,8.38
2023-01-29T20:32:15.754Z,15.43
2023-01-29T20:34:42.494Z,13.00
2023-01-29T20:37:09.196Z,15.13
2023-01-29T20:39:35.844Z,13.52
2023-01-29T20:42:02.576Z,13.75
2023-01-29T20:44:29.290Z,15.07
2023-01-29T20:46:56.302Z,12.60
2023-01-29T20:49:24.488Z,11.55
2023-01-29T20:51:51.280Z,13.43
2023-01-29T20:54:18.246Z,12.75
2023-01-29T20:56:45.812Z,17.73
2023-01-29T20:59:13.882Z,14.80
2023-01-29T21:01:41.507Z,12.90
2023-01-29T21:04:08.270Z,9.43
2023-01-29T21:06:36.432Z,11.40
2023-01-29T21:09:03.540Z,16.23
2023-01-29T21:11:30.375Z,12.38
2023-01-29T21:13:57.141Z,16.13
2023-01-29T21:16:24.422Z,16.25
2023-01-29T21:18:51.108Z,12.30
2023-01-29T21:21:17.882Z,15.55
2023-01-29T21:23:45.843Z,9.48
2023-01-29T21:26:12.590Z,9.95
2023-01-29T21:28:39.395Z,11.43
2023-01-29T21:31:07.862Z,22.98
2023-01-29T21:33:34.747Z,15.02
2023-01-29T21:36:02.087Z,10.93
2023-01-29T21:38:28.813Z,10.00
2023-01-29T21:41:00.791Z,12.07
2023-01-29T21:43:27.867Z,12.05
2023-01-29T21:45:55.937Z,14.93
2023-01-29T21:48:23.118Z,11.95
2023-01-29T21:50:50.104Z,15.65
2023-01-29T21:53:16.930Z,15.45
2023-01-29T21:55:43.772Z,16.23
2023-01-29T21:58:14.297Z,11.73
2023-01-29T22:00:41.266Z,13.88
2023-01-29T22:03:08.163Z,33.35
2023-01-29T22:05:34.907Z,27.65
2023-01-29T22:08:01.803Z,18.38
2023-01-29T22:10:28.816Z,12.98
2023-01-29T22:12:55.739Z,16.23
2023-01-29T22:15:24.209Z,15.10
2023-01-29T22:17:51.196Z,11.43
2023-01-29T22:20:18.636Z,16.70
2023-01-29T22:22:45.608Z,14.32
2023-01-29T22:25:12.440Z,19.85
2023-01-29T22:27:39.169Z,11.55
2023-01-29T22:30:07.378Z,11.15
2023-01-29T22:32:35.463Z,12.88
2023-01-29T22:35:02.165Z,11.55
2023-01-29T22:37:28.857Z,14.40
2023-01-29T22:39:55.598Z,19.67
2023-01-29T22:42:22.327Z,13.27
2023-01-29T22:44:49.067Z,14.93
2023-01-29T22:47:15.919Z,14.27
2023-01-29T22:49:44.202Z,12.20
2023-01-29T22:52:10.938Z,11.52
2023-01-29T22:54:39.194Z,12.35
2023-01-29T22:57:06.827Z,31.48
2023-01-29T22:59:33.674Z,20.30
2023-01-29T23:02:00.549Z,7.53
2023-01-29T23:04:27.510Z,9.35
2023-01-29T23:06:55.728Z,12.90
2023-01-29T23:09:22.644Z,17.23
2023-01-29T23:11:49.353Z,7.25
2023-01-29T23:14:16.183Z,8.50
2023-01-29T23:16:43.134Z,11.13
2023-01-29T23:19:10.789Z,8.50
2023-01-29T23:21:38.001Z,10.25
2023-01-29T23:24:07.115Z,13.02
2023-01-29T23:26:34.175Z,8.32
2023-01-29T23:29:00.912Z,11.32
2023-01-29T23:31:27.712Z,11.02
2023-01-29T23:33:54.867Z,19.67
2023-01-29T23:36:21.803Z,14.15
2023-01-29T23:38:48.464Z,14.27
2023-01-29T23:41:16.628Z,14.57
2023-01-29T23:43:43.353Z,7.90
2023-01-29T23:46:10.080Z,13.85
2023-01-29T23:48:36.679Z,21.30
2023-01-29T23:51:03.775Z,11.32
2023-01-29T23:53:30.511Z,10.27
2023-01-29T23:55:58.451Z,10.23
2023-01-29T23:58:28.137Z,11.68
